< < Back
Terminal Aerodrome Forecast


Current Version              Previous Versions:   1  2  3  4  5  6  7  8  9  

Terminal Aerodrome Forecast

362
FTUS42 KGSP 292339
TAFAND
TAF
KAND 292339Z 3000/3024 21005KT P6SM BKN070
     FM300800 29007KT P6SM SCT250
     FM301600 30010G17KT P6SM FEW250
     FM302200 28009KT P6SM SKC=

Latest METAR

701
SAUS70 KWBC 310000 RRF
MTRAND
METAR KAND 302356Z AUTO 00000KT 10SM CLR 07/M08 A3026 RMK AO2 SLP248
T00721078 10122 20067 53027


USA.gov is the U.S. government's official web portal to all federal, state and local government web resources and services.